sensor_id;sensor_type;location;lat;lon;timestamp;pressure;altitude;pressure_sealevel;temperature;humidity
24486;BME280;13449;49.374;8.584;2024-01-16T00:01:37;99951.34;;;-3.00;100.00
24486;BME280;13449;49.374;8.584;2024-01-16T00:04:05;99955.59;;;-2.97;100.00
24486;BME280;13449;49.374;8.584;2024-01-16T00:06:32;99959.97;;;-3.01;100.00
24486;BME280;13449;49.374;8.584;2024-01-16T00:08:58;99959.25;;;-3.06;100.00
24486;BME280;13449;49.374;8.584;2024-01-16T00:11:25;99961.50;;;-2.94;100.00
24486;BME280;13449;49.374;8.584;2024-01-16T00:13:52;99967.63;;;-2.98;100.00
24486;BME280;13449;49.374;8.584;2024-01-16T00:16:20;99966.78;;;-2.98;100.00
24486;BME280;13449;49.374;8.584;2024-01-16T00:18:46;99971.13;;;-3.01;100.00
24486;BME280;13449;49.374;8.584;2024-01-16T00:21:13;99972.94;;;-3.04;100.00
24486;BME280;13449;49.374;8.584;2024-01-16T00:23:39;99976.50;;;-3.08;100.00
24486;BME280;13449;49.374;8.584;2024-01-16T00:26:08;99973.38;;;-3.19;100.00
24486;BME280;13449;49.374;8.584;2024-01-16T00:28:45;99984.56;;;-3.20;100.00
24486;BME280;13449;49.374;8.584;2024-01-16T00:31:14;99980.50;;;-3.27;100.00
24486;BME280;13449;49.374;8.584;2024-01-16T00:33:41;99984.41;;;-3.14;100.00
24486;BME280;13449;49.374;8.584;2024-01-16T00:36:08;99991.31;;;-3.16;100.00
24486;BME280;13449;49.374;8.584;2024-01-16T00:38:35;99994.25;;;-3.28;100.00
24486;BME280;13449;49.374;8.584;2024-01-16T00:41:02;99999.66;;;-3.38;100.00
24486;BME280;13449;49.374;8.584;2024-01-16T00:43:28;100004.88;;;-3.41;100.00
24486;BME280;13449;49.374;8.584;2024-01-16T00:45:56;100008.44;;;-3.45;100.00
24486;BME280;13449;49.374;8.584;2024-01-16T00:48:22;100005.91;;;-3.48;100.00
24486;BME280;13449;49.374;8.584;2024-01-16T00:50:49;100013.91;;;-3.57;100.00
24486;BME280;13449;49.374;8.584;2024-01-16T00:53:16;100012.31;;;-3.61;100.00
24486;BME280;13449;49.374;8.584;2024-01-16T00:55:43;100014.00;;;-3.60;100.00
24486;BME280;13449;49.374;8.584;2024-01-16T00:58:12;100016.63;;;-3.63;100.00
24486;BME280;13449;49.374;8.584;2024-01-16T01:00:39;100017.38;;;-3.58;100.00
24486;BME280;13449;49.374;8.584;2024-01-16T01:03:06;100008.13;;;-3.67;100.00
24486;BME280;13449;49.374;8.584;2024-01-16T01:05:32;100017.59;;;-3.67;100.00
24486;BME280;13449;49.374;8.584;2024-01-16T01:07:59;100022.59;;;-3.61;100.00
24486;BME280;13449;49.374;8.584;2024-01-16T01:10:25;100026.06;;;-3.62;100.00
24486;BME280;13449;49.374;8.584;2024-01-16T01:12:52;100034.75;;;-3.68;100.00
24486;BME280;13449;49.374;8.584;2024-01-16T01:15:21;100036.34;;;-3.62;100.00
24486;BME280;13449;49.374;8.584;2024-01-16T01:17:51;100037.88;;;-3.55;100.00
24486;BME280;13449;49.374;8.584;2024-01-16T01:20:18;100035.44;;;-3.59;100.00
24486;BME280;13449;49.374;8.584;2024-01-16T01:22:45;100030.94;;;-3.53;100.00
24486;BME280;13449;49.374;8.584;2024-01-16T01:25:12;100031.78;;;-3.52;100.00
24486;BME280;13449;49.374;8.584;2024-01-16T01:27:39;100031.66;;;-3.48;100.00
24486;BME280;13449;49.374;8.584;2024-01-16T01:30:07;100039.97;;;-3.37;100.00
24486;BME280;13449;49.374;8.584;2024-01-16T01:32:38;100038.22;;;-3.36;100.00
24486;BME280;13449;49.374;8.584;2024-01-16T01:35:05;100042.22;;;-3.24;100.00
24486;BME280;13449;49.374;8.584;2024-01-16T01:37:32;100055.72;;;-3.16;100.00
24486;BME280;13449;49.374;8.584;2024-01-16T01:39:59;100053.97;;;-3.14;100.00
24486;BME280;13449;49.374;8.584;2024-01-16T01:42:25;100047.38;;;-3.24;100.00
24486;BME280;13449;49.374;8.584;2024-01-16T01:44:53;100047.53;;;-3.30;100.00
24486;BME280;13449;49.374;8.584;2024-01-16T01:47:20;100052.84;;;-3.37;100.00
24486;BME280;13449;49.374;8.584;2024-01-16T01:49:47;100051.25;;;-3.41;100.00
24486;BME280;13449;49.374;8.584;2024-01-16T01:52:14;100058.25;;;-3.47;100.00
24486;BME280;13449;49.374;8.584;2024-01-16T01:54:40;100059.41;;;-3.57;100.00
24486;BME280;13449;49.374;8.584;2024-01-16T01:57:08;100063.84;;;-3.63;100.00
24486;BME280;13449;49.374;8.584;2024-01-16T01:59:35;100065.56;;;-3.65;100.00
24486;BME280;13449;49.374;8.584;2024-01-16T02:02:02;100065.84;;;-3.75;100.00
24486;BME280;13449;49.374;8.584;2024-01-16T02:04:31;100065.00;;;-3.76;100.00
24486;BME280;13449;49.374;8.584;2024-01-16T02:06:58;100063.31;;;-3.77;100.00
24486;BME280;13449;49.374;8.584;2024-01-16T02:09:25;100059.88;;;-3.76;100.00
24486;BME280;13449;49.374;8.584;2024-01-16T02:11:51;100068.44;;;-3.75;100.00
24486;BME280;13449;49.374;8.584;2024-01-16T02:14:18;100065.09;;;-3.80;100.00
24486;BME280;13449;49.374;8.584;2024-01-16T02:16:44;100059.09;;;-3.81;100.00
24486;BME280;13449;49.374;8.584;2024-01-16T02:19:11;100071.09;;;-3.78;100.00
24486;BME280;13449;49.374;8.584;2024-01-16T02:21:40;100065.84;;;-3.75;100.00
24486;BME280;13449;49.374;8.584;2024-01-16T02:24:09;100071.97;;;-3.81;100.00
24486;BME280;13449;49.374;8.584;2024-01-16T02:26:37;100067.66;;;-3.80;100.00
24486;BME280;13449;49.374;8.584;2024-01-16T02:29:05;100065.00;;;-3.76;100.00
24486;BME280;13449;49.374;8.584;2024-01-16T02:31:32;100051.19;;;-3.72;100.00
24486;BME280;13449;49.374;8.584;2024-01-16T02:34:00;100052.91;;;-3.72;100.00
24486;BME280;13449;49.374;8.584;2024-01-16T02:36:28;100066.63;;;-3.72;100.00
24486;BME280;13449;49.374;8.584;2024-01-16T02:38:57;100064.09;;;-3.73;100.00
24486;BME280;13449;49.374;8.584;2024-01-16T02:41:24;100060.72;;;-3.75;100.00
24486;BME280;13449;49.374;8.584;2024-01-16T02:43:51;100059.75;;;-3.71;100.00
24486;BME280;13449;49.374;8.584;2024-01-16T02:46:18;100059.69;;;-3.70;100.00
24486;BME280;13449;49.374;8.584;2024-01-16T02:48:44;100062.44;;;-3.76;100.00
24486;BME280;13449;49.374;8.584;2024-01-16T02:51:12;100062.41;;;-3.74;100.00
24486;BME280;13449;49.374;8.584;2024-01-16T02:53:41;100067.53;;;-3.74;100.00
24486;BME280;13449;49.374;8.584;2024-01-16T02:56:08;100061.59;;;-3.76;100.00
24486;BME280;13449;49.374;8.584;2024-01-16T02:58:36;100065.81;;;-3.74;100.00
24486;BME280;13449;49.374;8.584;2024-01-16T03:01:05;100069.38;;;-3.79;100.00
24486;BME280;13449;49.374;8.584;2024-01-16T03:03:32;100066.06;;;-3.84;100.00
24486;BME280;13449;49.374;8.584;2024-01-16T03:05:58;100072.13;;;-3.87;100.00
24486;BME280;13449;49.374;8.584;2024-01-16T03:08:26;100080.81;;;-3.91;100.00
24486;BME280;13449;49.374;8.584;2024-01-16T03:10:52;100081.50;;;-3.84;100.00
24486;BME280;13449;49.374;8.584;2024-01-16T03:13:19;100081.75;;;-3.94;100.00
24486;BME280;13449;49.374;8.584;2024-01-16T03:15:45;100085.97;;;-3.91;100.00
24486;BME280;13449;49.374;8.584;2024-01-16T03:18:12;100092.09;;;-3.97;100.00
24486;BME280;13449;49.374;8.584;2024-01-16T03:20:41;100096.34;;;-3.94;100.00
24486;BME280;13449;49.374;8.584;2024-01-16T03:23:08;100100.53;;;-3.90;100.00
24486;BME280;13449;49.374;8.584;2024-01-16T03:25:38;100100.31;;;-3.82;100.00
24486;BME280;13449;49.374;8.584;2024-01-16T03:28:07;100097.91;;;-3.88;100.00
24486;BME280;13449;49.374;8.584;2024-01-16T03:30:39;100098.56;;;-3.80;100.00
24486;BME280;13449;49.374;8.584;2024-01-16T03:33:05;100100.16;;;-3.75;100.00
24486;BME280;13449;49.374;8.584;2024-01-16T03:35:35;100095.09;;;-3.79;100.00
24486;BME280;13449;49.374;8.584;2024-01-16T03:38:02;100097.53;;;-3.73;100.00
24486;BME280;13449;49.374;8.584;2024-01-16T03:40:28;100103.78;;;-3.83;100.00
24486;BME280;13449;49.374;8.584;2024-01-16T03:43:01;100111.38;;;-3.79;100.00
24486;BME280;13449;49.374;8.584;2024-01-16T03:45:28;100107.16;;;-3.81;100.00
24486;BME280;13449;49.374;8.584;2024-01-16T03:47:57;100101.72;;;-3.69;100.00
24486;BME280;13449;49.374;8.584;2024-01-16T03:50:26;100095.66;;;-3.67;100.00
24486;BME280;13449;49.374;8.584;2024-01-16T03:52:52;100104.19;;;-3.65;100.00
24486;BME280;13449;49.374;8.584;2024-01-16T03:55:19;100099.97;;;-3.67;100.00
24486;BME280;13449;49.374;8.584;2024-01-16T03:57:46;100093.97;;;-3.68;100.00
24486;BME280;13449;49.374;8.584;2024-01-16T04:00:12;100098.28;;;-3.68;100.00
24486;BME280;13449;49.374;8.584;2024-01-16T04:02:40;100095.78;;;-3.71;100.00
24486;BME280;13449;49.374;8.584;2024-01-16T04:05:06;100094.81;;;-3.67;100.00
24486;BME280;13449;49.374;8.584;2024-01-16T04:07:35;100094.13;;;-3.74;100.00
24486;BME280;13449;49.374;8.584;2024-01-16T04:10:02;100090.75;;;-3.76;100.00
24486;BME280;13449;49.374;8.584;2024-01-16T04:12:32;100099.41;;;-3.80;100.00
24486;BME280;13449;49.374;8.584;2024-01-16T04:14:58;100106.31;;;-3.82;100.00
24486;BME280;13449;49.374;8.584;2024-01-16T04:17:24;100107.31;;;-3.87;100.00
24486;BME280;13449;49.374;8.584;2024-01-16T04:19:51;100102.81;;;-3.78;100.00
24486;BME280;13449;49.374;8.584;2024-01-16T04:22:17;100106.94;;;-3.72;100.00
24486;BME280;13449;49.374;8.584;2024-01-16T04:24:46;100115.63;;;-3.76;100.00
24486;BME280;13449;49.374;8.584;2024-01-16T04:27:15;100110.63;;;-3.82;100.00
24486;BME280;13449;49.374;8.584;2024-01-16T04:29:44;100110.03;;;-3.94;100.00
24486;BME280;13449;49.374;8.584;2024-01-16T04:32:11;100105.75;;;-3.95;100.00
24486;BME280;13449;49.374;8.584;2024-01-16T04:34:37;100106.00;;;-4.05;100.00
24486;BME280;13449;49.374;8.584;2024-01-16T04:37:04;100105.25;;;-4.09;100.00
24486;BME280;13449;49.374;8.584;2024-01-16T04:39:31;100108.69;;;-4.10;100.00
24486;BME280;13449;49.374;8.584;2024-01-16T04:41:57;100104.59;;;-4.18;100.00
24486;BME280;13449;49.374;8.584;2024-01-16T04:44:24;100106.25;;;-4.16;100.00
24486;BME280;13449;49.374;8.584;2024-01-16T04:46:50;100111.28;;;-4.10;100.00
24486;BME280;13449;49.374;8.584;2024-01-16T04:49:17;100100.00;;;-4.04;100.00
24486;BME280;13449;49.374;8.584;2024-01-16T04:51:44;100101.44;;;-3.93;100.00
24486;BME280;13449;49.374;8.584;2024-01-16T04:54:11;100110.69;;;-3.85;100.00
24486;BME280;13449;49.374;8.584;2024-01-16T04:56:38;100103.84;;;-3.86;100.00
24486;BME280;13449;49.374;8.584;2024-01-16T04:59:04;100103.94;;;-3.89;100.00
24486;BME280;13449;49.374;8.584;2024-01-16T05:01:31;100106.44;;;-3.86;100.00
24486;BME280;13449;49.374;8.584;2024-01-16T05:03:57;100108.84;;;-3.80;100.00
24486;BME280;13449;49.374;8.584;2024-01-16T05:06:24;100103.38;;;-3.67;100.00
24486;BME280;13449;49.374;8.584;2024-01-16T05:08:53;100108.47;;;-3.65;100.00
24486;BME280;13449;49.374;8.584;2024-01-16T05:11:22;100112.63;;;-3.58;100.00
24486;BME280;13449;49.374;8.584;2024-01-16T05:13:49;100108.31;;;-3.57;100.00
24486;BME280;13449;49.374;8.584;2024-01-16T05:16:15;100108.28;;;-3.56;100.00
24486;BME280;13449;49.374;8.584;2024-01-16T05:18:42;100096.00;;;-3.45;100.00
24486;BME280;13449;49.374;8.584;2024-01-16T05:21:11;100100.88;;;-3.36;100.00
24486;BME280;13449;49.374;8.584;2024-01-16T05:23:40;100094.28;;;-3.46;100.00
24486;BME280;13449;49.374;8.584;2024-01-16T05:26:07;100101.28;;;-3.51;100.00
24486;BME280;13449;49.374;8.584;2024-01-16T05:28:33;100097.88;;;-3.53;100.00
24486;BME280;13449;49.374;8.584;2024-01-16T05:31:00;100087.59;;;-3.53;100.00
24486;BME280;13449;49.374;8.584;2024-01-16T05:33:29;100087.50;;;-3.50;100.00
24486;BME280;13449;49.374;8.584;2024-01-16T05:35:59;100096.19;;;-3.54;100.00
24486;BME280;13449;49.374;8.584;2024-01-16T05:38:25;100087.50;;;-3.50;100.00
24486;BME280;13449;49.374;8.584;2024-01-16T05:40:52;100079.06;;;-3.55;100.00
24486;BME280;13449;49.374;8.584;2024-01-16T05:43:21;100079.28;;;-3.64;100.00
24486;BME280;13449;49.374;8.584;2024-01-16T05:45:47;100078.66;;;-3.72;100.00
24486;BME280;13449;49.374;8.584;2024-01-16T05:48:14;100073.78;;;-3.84;100.00
24486;BME280;13449;49.374;8.584;2024-01-16T05:50:40;100067.00;;;-3.87;100.00
24486;BME280;13449;49.374;8.584;2024-01-16T05:53:08;100069.69;;;-3.92;100.00
24486;BME280;13449;49.374;8.584;2024-01-16T05:55:35;100068.00;;;-3.93;100.00
24486;BME280;13449;49.374;8.584;2024-01-16T05:58:03;100065.47;;;-3.94;100.00
24486;BME280;13449;49.374;8.584;2024-01-16T06:00:31;100066.50;;;-4.03;100.00
24486;BME280;13449;49.374;8.584;2024-01-16T06:03:01;100075.09;;;-4.04;100.00
24486;BME280;13449;49.374;8.584;2024-01-16T06:05:30;100076.00;;;-4.05;100.00
24486;BME280;13449;49.374;8.584;2024-01-16T06:07:56;100073.50;;;-4.08;100.00
24486;BME280;13449;49.374;8.584;2024-01-16T06:10:25;100078.75;;;-4.14;100.00
24486;BME280;13449;49.374;8.584;2024-01-16T06:12:52;100083.19;;;-4.19;100.00
24486;BME280;13449;49.374;8.584;2024-01-16T06:15:18;100090.00;;;-4.18;100.00
24486;BME280;13449;49.374;8.584;2024-01-16T06:17:45;100090.09;;;-4.21;100.00
24486;BME280;13449;49.374;8.584;2024-01-16T06:20:12;100085.78;;;-4.20;100.00
24486;BME280;13449;49.374;8.584;2024-01-16T06:22:38;100089.28;;;-4.23;100.00
24486;BME280;13449;49.374;8.584;2024-01-16T06:25:05;100089.31;;;-4.26;100.00
24486;BME280;13449;49.374;8.584;2024-01-16T06:27:34;100083.44;;;-4.31;100.00
24486;BME280;13449;49.374;8.584;2024-01-16T06:30:00;100086.63;;;-4.20;100.00
24486;BME280;13449;49.374;8.584;2024-01-16T06:32:30;100087.25;;;-4.09;100.00
24486;BME280;13449;49.374;8.584;2024-01-16T06:34:57;100087.56;;;-4.23;100.00
24486;BME280;13449;49.374;8.584;2024-01-16T06:37:23;100082.22;;;-4.15;100.00
24486;BME280;13449;49.374;8.584;2024-01-16T06:39:49;100088.31;;;-4.19;100.00
24486;BME280;13449;49.374;8.584;2024-01-16T06:42:18;100093.31;;;-4.13;100.00
24486;BME280;13449;49.374;8.584;2024-01-16T06:44:46;100089.31;;;-4.26;100.00
24486;BME280;13449;49.374;8.584;2024-01-16T06:47:13;100088.41;;;-4.22;100.00
24486;BME280;13449;49.374;8.584;2024-01-16T06:49:40;100088.94;;;-4.08;100.00
24486;BME280;13449;49.374;8.584;2024-01-16T06:52:08;100086.56;;;-4.17;100.00
24486;BME280;13449;49.374;8.584;2024-01-16T06:54:36;100089.06;;;-4.14;100.00
24486;BME280;13449;49.374;8.584;2024-01-16T06:57:04;100082.22;;;-4.15;100.00
24486;BME280;13449;49.374;8.584;2024-01-16T06:59:31;100081.25;;;-4.09;100.00
24486;BME280;13449;49.374;8.584;2024-01-16T07:01:57;100081.09;;;-4.03;100.00
24486;BME280;13449;49.374;8.584;2024-01-16T07:04:24;100082.81;;;-4.04;100.00
24486;BME280;13449;49.374;8.584;2024-01-16T07:06:50;100075.94;;;-4.03;100.00
24486;BME280;13449;49.374;8.584;2024-01-16T07:09:17;100086.72;;;-3.87;100.00
24486;BME280;13449;49.374;8.584;2024-01-16T07:11:47;100090.16;;;-3.87;100.00
24486;BME280;13449;49.374;8.584;2024-01-16T07:14:14;100087.72;;;-3.93;100.00
24486;BME280;13449;49.374;8.584;2024-01-16T07:16:41;100088.56;;;-3.93;100.00
24486;BME280;13449;49.374;8.584;2024-01-16T07:19:07;100088.50;;;-3.89;100.00
24486;BME280;13449;49.374;8.584;2024-01-16T07:21:34;100086.66;;;-3.84;100.00
24486;BME280;13449;49.374;8.584;2024-01-16T07:24:01;100092.50;;;-3.78;100.00
24486;BME280;13449;49.374;8.584;2024-01-16T07:26:28;100093.41;;;-3.80;100.00
24486;BME280;13449;49.374;8.584;2024-01-16T07:28:57;100091.78;;;-3.84;100.00
24486;BME280;13449;49.374;8.584;2024-01-16T07:31:29;100090.09;;;-3.85;100.00
24486;BME280;13449;49.374;8.584;2024-01-16T07:33:55;100083.19;;;-3.83;100.00
24486;BME280;13449;49.374;8.584;2024-01-16T07:36:22;100088.31;;;-3.82;100.00
24486;BME280;13449;49.374;8.584;2024-01-16T07:38:51;100084.97;;;-3.85;100.00
24486;BME280;13449;49.374;8.584;2024-01-16T07:41:20;100088.47;;;-3.88;100.00
24486;BME280;13449;49.374;8.584;2024-01-16T07:43:47;100091.06;;;-3.89;100.00
24486;BME280;13449;49.374;8.584;2024-01-16T07:46:15;100097.59;;;-3.75;100.00
24486;BME280;13449;49.374;8.584;2024-01-16T07:48:45;100094.09;;;-3.72;100.00
24486;BME280;13449;49.374;8.584;2024-01-16T07:51:12;100094.81;;;-3.67;100.00
24486;BME280;13449;49.374;8.584;2024-01-16T07:53:39;100101.56;;;-3.63;100.00
24486;BME280;13449;49.374;8.584;2024-01-16T07:56:06;100102.22;;;-3.55;100.00
24486;BME280;13449;49.374;8.584;2024-01-16T07:58:35;100109.84;;;-3.50;100.00
24486;BME280;13449;49.374;8.584;2024-01-16T08:01:01;100105.53;;;-3.50;100.00
24486;BME280;13449;49.374;8.584;2024-01-16T08:03:29;100108.06;;;-3.47;100.00
24486;BME280;13449;49.374;8.584;2024-01-16T08:05:55;100110.63;;;-3.47;100.00
24486;BME280;13449;49.374;8.584;2024-01-16T08:08:22;100108.69;;;-3.39;100.00
24486;BME280;13449;49.374;8.584;2024-01-16T08:10:49;100105.94;;;-3.33;100.00
24486;BME280;13449;49.374;8.584;2024-01-16T08:13:15;100107.63;;;-3.32;100.00
24486;BME280;13449;49.374;8.584;2024-01-16T08:15:42;100105.81;;;-3.26;100.00
24486;BME280;13449;49.374;8.584;2024-01-16T08:18:08;100110.72;;;-3.17;100.00
24486;BME280;13449;49.374;8.584;2024-01-16T08:20:35;100112.06;;;-3.04;100.00
24486;BME280;13449;49.374;8.584;2024-01-16T08:23:02;100123.13;;;-3.01;100.00
24486;BME280;13449;49.374;8.584;2024-01-16T08:25:28;100117.72;;;-2.90;100.00
24486;BME280;13449;49.374;8.584;2024-01-16T08:27:55;100114.94;;;-2.82;100.00
24486;BME280;13449;49.374;8.584;2024-01-16T08:30:21;100125.03;;;-2.75;100.00
24486;BME280;13449;49.374;8.584;2024-01-16T08:32:50;100123.16;;;-2.69;100.00
24486;BME280;13449;49.374;8.584;2024-01-16T08:35:16;100120.47;;;-2.65;100.00
24486;BME280;13449;49.374;8.584;2024-01-16T08:37:43;100126.28;;;-2.58;100.00
24486;BME280;13449;49.374;8.584;2024-01-16T08:40:13;100134.72;;;-2.53;100.00
24486;BME280;13449;49.374;8.584;2024-01-16T08:42:41;100128.56;;;-2.48;100.00
24486;BME280;13449;49.374;8.584;2024-01-16T08:45:10;100130.97;;;-2.42;100.00
24486;BME280;13449;49.374;8.584;2024-01-16T08:47:37;100124.06;;;-2.41;100.00
24486;BME280;13449;49.374;8.584;2024-01-16T08:50:04;100117.06;;;-2.37;100.00
24486;BME280;13449;49.374;8.584;2024-01-16T08:52:30;100116.97;;;-2.33;100.00
24486;BME280;13449;49.374;8.584;2024-01-16T08:54:57;100119.44;;;-2.30;100.00
24486;BME280;13449;49.374;8.584;2024-01-16T08:57:24;100113.28;;;-2.26;100.00
24486;BME280;13449;49.374;8.584;2024-01-16T08:59:54;100108.81;;;-2.19;100.00
24486;BME280;13449;49.374;8.584;2024-01-16T09:02:21;100106.19;;;-2.18;100.00
24486;BME280;13449;49.374;8.584;2024-01-16T09:04:48;100111.19;;;-2.13;100.00
24486;BME280;13449;49.374;8.584;2024-01-16T09:07:16;100105.94;;;-2.10;100.00
24486;BME280;13449;49.374;8.584;2024-01-16T09:09:43;100099.78;;;-2.06;100.00
24486;BME280;13449;49.374;8.584;2024-01-16T09:12:10;100099.72;;;-2.03;100.00
24486;BME280;13449;49.374;8.584;2024-01-16T09:14:39;100095.19;;;-1.96;100.00
24486;BME280;13449;49.374;8.584;2024-01-16T09:17:05;100107.09;;;-1.92;100.00
24486;BME280;13449;49.374;8.584;2024-01-16T09:19:32;100099.03;;;-1.82;100.00
24486;BME280;13449;49.374;8.584;2024-01-16T09:21:59;100101.28;;;-1.71;100.00
24486;BME280;13449;49.374;8.584;2024-01-16T09:24:25;100104.38;;;-1.61;100.00
24486;BME280;13449;49.374;8.584;2024-01-16T09:26:56;100110.31;;;-1.58;100.00
24486;BME280;13449;49.374;8.584;2024-01-16T09:29:24;100112.47;;;-1.45;100.00
24486;BME280;13449;49.374;8.584;2024-01-16T09:31:51;100113.03;;;-1.36;100.00
24486;BME280;13449;49.374;8.584;2024-01-16T09:34:18;100108.41;;;-1.26;100.00
24486;BME280;13449;49.374;8.584;2024-01-16T09:36:44;100093.75;;;-1.26;100.00
24486;BME280;13449;49.374;8.584;2024-01-16T09:39:13;100088.09;;;-1.12;100.00
24486;BME280;13449;49.374;8.584;2024-01-16T09:41:45;100089.47;;;-1.02;100.00
24486;BME280;13449;49.374;8.584;2024-01-16T09:44:11;100079.91;;;-1.00;100.00
24486;BME280;13449;49.374;8.584;2024-01-16T09:46:39;100080.50;;;-0.92;100.00
24486;BME280;13449;49.374;8.584;2024-01-16T09:49:07;100067.56;;;-0.92;100.00
24486;BME280;13449;49.374;8.584;2024-01-16T09:51:37;100067.44;;;-0.88;100.00
24486;BME280;13449;49.374;8.584;2024-01-16T09:54:03;100052.53;;;-0.82;100.00
24486;BME280;13449;49.374;8.584;2024-01-16T09:56:39;100048.28;;;-0.83;100.00
24486;BME280;13449;49.374;8.584;2024-01-16T09:59:09;100049.00;;;-0.79;100.00
24486;BME280;13449;49.374;8.584;2024-01-16T10:01:43;100042.97;;;-0.78;100.00
24486;BME280;13449;49.374;8.584;2024-01-16T10:04:11;100048.00;;;-0.75;100.00
24486;BME280;13449;49.374;8.584;2024-01-16T10:06:39;100047.66;;;-0.66;100.00
24486;BME280;13449;49.374;8.584;2024-01-16T10:09:06;100049.34;;;-0.65;100.00
24486;BME280;13449;49.374;8.584;2024-01-16T10:11:33;100050.81;;;-0.58;100.00
24486;BME280;13449;49.374;8.584;2024-01-16T10:14:00;100050.81;;;-0.58;100.00
24486;BME280;13449;49.374;8.584;2024-01-16T10:17:02;100043.50;;;-0.47;100.00
24486;BME280;13449;49.374;8.584;2024-01-16T10:19:51;100046.63;;;-0.39;100.00
24486;BME280;13449;49.374;8.584;2024-01-16T10:22:23;100039.75;;;-0.40;100.00
24486;BME280;13449;49.374;8.584;2024-01-16T10:27:32;100025.06;;;-0.17;100.00
24486;BME280;13449;49.374;8.584;2024-01-16T10:30:00;100023.38;;;-0.18;100.00
24486;BME280;13449;49.374;8.584;2024-01-16T10:32:33;100018.13;;;-0.17;100.00
24486;BME280;13449;49.374;8.584;2024-01-16T10:37:50;99999.09;;;-0.14;100.00
24486;BME280;13449;49.374;8.584;2024-01-16T10:40:22;100008.28;;;-0.07;100.00
24486;BME280;13449;49.374;8.584;2024-01-16T10:43:01;100003.66;;;0.01;100.00
24486;BME280;13449;49.374;8.584;2024-01-16T10:45:30;100002.59;;;0.05;100.00
24486;BME280;13449;49.374;8.584;2024-01-16T10:50:31;99993.94;;;0.06;100.00
24486;BME280;13449;49.374;8.584;2024-01-16T10:53:05;99981.81;;;0.07;100.00
24486;BME280;13449;49.374;8.584;2024-01-16T10:55:51;99980.84;;;0.09;100.00
24486;BME280;13449;49.374;8.584;2024-01-16T10:58:22;99975.31;;;0.18;100.00
24486;BME280;13449;49.374;8.584;2024-01-16T11:00:51;99968.63;;;0.33;100.00
24486;BME280;13449;49.374;8.584;2024-01-16T11:03:28;99958.78;;;0.21;100.00
24486;BME280;13449;49.374;8.584;2024-01-16T11:05:57;99960.19;;;0.28;100.00
24486;BME280;13449;49.374;8.584;2024-01-16T11:08:25;99964.84;;;0.40;100.00
24486;BME280;13449;49.374;8.584;2024-01-16T11:10:57;99954.44;;;0.42;100.00
24486;BME280;13449;49.374;8.584;2024-01-16T11:13:26;99950.16;;;0.41;100.00
24486;BME280;13449;49.374;8.584;2024-01-16T11:15:59;99953.53;;;0.43;100.00
24486;BME280;13449;49.374;8.584;2024-01-16T11:18:27;99954.69;;;0.56;100.00
24486;BME280;13449;49.374;8.584;2024-01-16T11:20:57;99955.72;;;0.52;100.00
24486;BME280;13449;49.374;8.584;2024-01-16T11:23:34;99946.38;;;0.68;100.00
24486;BME280;13449;49.374;8.584;2024-01-16T11:26:24;99945.47;;;0.69;100.00
24486;BME280;13449;49.374;8.584;2024-01-16T11:28:54;99944.47;;;0.72;100.00
24486;BME280;13449;49.374;8.584;2024-01-16T11:31:33;99943.34;;;0.77;100.00
24486;BME280;13449;49.374;8.584;2024-01-16T11:34:01;99934.81;;;0.75;100.00
24486;BME280;13449;49.374;8.584;2024-01-16T11:39:18;99926.00;;;0.79;100.00
24486;BME280;13449;49.374;8.584;2024-01-16T11:41:57;99929.75;;;0.72;100.00
24486;BME280;13449;49.374;8.584;2024-01-16T11:47:21;99918.09;;;0.82;100.00
24486;BME280;13449;49.374;8.584;2024-01-16T11:49:50;99910.31;;;0.82;100.00
24486;BME280;13449;49.374;8.584;2024-01-16T11:52:43;99898.09;;;0.84;100.00
24486;BME280;13449;49.374;8.584;2024-01-16T11:58:35;99899.84;;;1.03;100.00
24486;BME280;13449;49.374;8.584;2024-01-16T12:01:10;99891.78;;;1.09;100.00
24486;BME280;13449;49.374;8.584;2024-01-16T12:03:38;99886.31;;;1.15;100.00
24486;BME280;13449;49.374;8.584;2024-01-16T12:06:09;99889.97;;;1.11;100.00
24486;BME280;13449;49.374;8.584;2024-01-16T12:08:38;99881.84;;;1.00;100.00
24486;BME280;13449;49.374;8.584;2024-01-16T12:11:07;99872.09;;;1.05;100.00
24486;BME280;13449;49.374;8.584;2024-01-16T12:13:36;99869.22;;;1.11;100.00
24486;BME280;13449;49.374;8.584;2024-01-16T12:16:05;99870.91;;;1.12;100.00
24486;BME280;13449;49.374;8.584;2024-01-16T12:18:34;99867.53;;;0.91;100.00
24486;BME280;13449;49.374;8.584;2024-01-16T12:21:10;99862.94;;;0.98;100.00
24486;BME280;13449;49.374;8.584;2024-01-16T12:23:40;99854.38;;;0.96;100.00
24486;BME280;13449;49.374;8.584;2024-01-16T12:26:22;99852.41;;;1.01;100.00
24486;BME280;13449;49.374;8.584;2024-01-16T12:28:55;99854.09;;;1.02;100.00
24486;BME280;13449;49.374;8.584;2024-01-16T12:31:28;99849.19;;;0.96;100.00
24486;BME280;13449;49.374;8.584;2024-01-16T12:34:08;99843.44;;;0.89;100.00
24486;BME280;13449;49.374;8.584;2024-01-16T12:36:37;99841.22;;;0.81;100.00
24486;BME280;13449;49.374;8.584;2024-01-16T12:39:09;99839.09;;;0.89;100.00
24486;BME280;13449;49.374;8.584;2024-01-16T12:41:44;99839.59;;;0.98;100.00
24486;BME280;13449;49.374;8.584;2024-01-16T12:44:14;99829.69;;;1.06;100.00
24486;BME280;13449;49.374;8.584;2024-01-16T12:47:03;99824.06;;;1.15;100.00
24486;BME280;13449;49.374;8.584;2024-01-16T12:49:33;99815.50;;;1.13;100.00
24486;BME280;13449;49.374;8.584;2024-01-16T12:52:17;99815.50;;;1.13;100.00
24486;BME280;13449;49.374;8.584;2024-01-16T12:54:45;99812.75;;;1.16;100.00
24486;BME280;13449;49.374;8.584;2024-01-16T12:57:17;99806.66;;;1.17;100.00
24486;BME280;13449;49.374;8.584;2024-01-16T12:59:46;99811.69;;;1.20;100.00
24486;BME280;13449;49.374;8.584;2024-01-16T13:02:22;99798.97;;;1.15;100.00
24486;BME280;13449;49.374;8.584;2024-01-16T13:05:01;99787.75;;;1.15;100.00
24486;BME280;13449;49.374;8.584;2024-01-16T13:07:31;99786.41;;;1.06;100.00